Time;durP1;ratioP1;P1;durP2;ratioP2;P2;SDS_P1;SDS_P2;PMS_P1;PMS_P2;Temp;Humidity;BMP_temperature;BMP_pressure;BME280_temperature;BME280_humidity;BME280_pressure;Samples;Min_cycle;Max_cycle;Signal;HPM_P1;HPM_P2
2023/06/08 00:00:50;;;;;;;0.60;0.60;;;;;;;20.20;95.01;100211.91;5074258;28;20199;-72
2023/06/08 00:03:18;;;;;;;0.70;0.70;;;;;;;20.07;96.32;100189.41;5074274;28;20199;-72
2023/06/08 00:05:47;;;;;;;0.80;0.80;;;;;;;20.21;96.61;100224.19;5074246;28;20199;-72
2023/06/08 00:08:14;;;;;;;0.60;0.60;;;;;;;19.94;97.44;100216.03;5074582;28;20206;-72
2023/06/08 00:10:44;;;;;;;0.70;0.70;;;;;;;19.98;97.05;100197.47;5074210;28;20349;-72
2023/06/08 00:13:12;;;;;;;0.73;0.73;;;;;;;19.82;98.63;100201.34;5074410;28;20272;-73
2023/06/08 00:15:39;;;;;;;0.70;0.70;;;;;;;19.98;96.86;100194.84;5073892;28;20636;-73
2023/06/08 00:18:08;;;;;;;0.60;0.60;;;;;;;19.99;96.48;100209.75;5054975;28;20228;-72
2023/06/08 00:20:36;;;;;;;0.70;0.70;;;;;;;19.64;96.06;100130.69;5073497;28;20700;-73
2023/06/08 00:23:04;;;;;;;0.70;0.70;;;;;;;19.86;96.39;100189.88;5073332;28;20214;-73
2023/06/08 00:25:31;;;;;;;0.60;0.60;;;;;;;19.94;96.56;100203.69;5038660;28;20249;-72
2023/06/08 00:27:58;;;;;;;0.80;0.80;;;;;;;19.85;96.85;100200.41;5038836;28;20210;-72
2023/06/08 00:30:25;;;;;;;0.60;0.60;;;;;;;19.88;96.95;100195.06;5073689;28;20271;-72
2023/06/08 00:32:51;;;;;;;0.70;0.70;;;;;;;19.79;97.64;100199.66;5072554;28;20281;-72
2023/06/08 00:35:18;;;;;;;0.50;0.50;;;;;;;19.73;97.26;100188.34;5073581;28;20214;-72
2023/06/08 00:37:46;;;;;;;0.80;0.80;;;;;;;19.98;96.99;100205.38;5073609;28;20206;-72
2023/06/08 00:40:13;;;;;;;0.70;0.70;;;;;;;19.90;96.72;100198.56;5073918;28;20223;-72
2023/06/08 00:42:40;;;;;;;0.68;0.68;;;;;;;19.86;96.45;100203.03;5073104;28;20207;-72
2023/06/08 00:45:09;;;;;;;0.60;0.60;;;;;;;20.01;95.73;100193.94;5038551;28;20195;-72
2023/06/08 00:47:36;;;;;;;0.60;0.60;;;;;;;19.87;94.24;100202.09;5073721;28;20209;-73
2023/06/08 00:50:03;;;;;;;0.63;0.63;;;;;;;19.85;94.57;100190.75;5073268;28;20195;-72
2023/06/08 00:52:30;;;;;;;0.70;0.70;;;;;;;20.02;93.83;100196.50;5073813;28;20198;-72
2023/06/08 00:55:00;;;;;;;0.80;0.80;;;;;;;20.11;93.76;100201.59;5073450;28;20211;-73
2023/06/08 00:57:28;;;;;;;0.70;0.70;;;;;;;20.06;94.01;100203.44;5073265;28;20206;-72
2023/06/08 00:59:57;;;;;;;0.50;0.50;;;;;;;20.05;94.94;100204.34;5073605;28;20223;-72
2023/06/08 01:02:24;;;;;;;0.60;0.60;;;;;;;19.99;97.56;100196.59;5073223;28;20198;-72
2023/06/08 01:04:53;;;;;;;0.70;0.70;;;;;;;19.78;98.49;100166.34;5034884;28;20674;-72
2023/06/08 01:07:33;;;;;;;0.60;0.60;;;;;;;20.11;99.63;100198.97;5057828;28;20636;-71
2023/06/08 01:10:05;;;;;;;0.70;0.70;;;;;;;19.90;99.33;100182.75;5073297;28;20190;-72
2023/06/08 01:12:40;;;;;;;0.60;0.60;;;;;;;20.01;98.47;100205.31;5034232;28;20230;-73
2023/06/08 01:15:14;;;;;;;0.70;0.70;;;;;;;20.03;100.00;100208.78;5048675;28;20685;-72
2023/06/08 01:17:44;;;;;;;0.70;0.70;;;;;;;19.77;100.00;100185.66;5072611;28;20199;-72
2023/06/08 01:20:24;;;;;;;0.75;0.75;;;;;;;19.77;100.00;100211.97;5073018;28;20227;-72
2023/06/08 01:23:04;;;;;;;0.70;0.70;;;;;;;19.58;100.00;100186.06;5072435;28;20734;-72
2023/06/08 01:25:35;;;;;;;0.70;0.70;;;;;;;19.68;100.00;100198.13;5072776;28;20206;-72
2023/06/08 01:28:12;;;;;;;1.15;1.08;;;;;;;19.61;100.00;100196.53;5054451;28;20245;-72
2023/06/08 01:30:40;;;;;;;0.63;0.63;;;;;;;19.33;100.00;100156.72;5072707;28;20234;-71
2023/06/08 01:33:07;;;;;;;0.70;0.70;;;;;;;19.27;100.00;100183.09;5072480;28;20230;-71
2023/06/08 01:35:34;;;;;;;0.60;0.60;;;;;;;19.30;100.00;100181.28;5072496;28;20190;-71
2023/06/08 01:38:09;;;;;;;0.68;0.68;;;;;;;19.33;100.00;100186.47;5072441;28;20730;-71
2023/06/08 01:40:43;;;;;;;0.70;0.70;;;;;;;19.35;100.00;100177.72;5072211;28;20226;-71
2023/06/08 01:43:12;;;;;;;0.60;0.60;;;;;;;19.10;100.00;100162.41;5071884;28;20290;-71
2023/06/08 01:45:44;;;;;;;0.70;0.70;;;;;;;19.08;100.00;100172.09;5071833;28;20195;-71
2023/06/08 01:48:12;;;;;;;0.70;0.70;;;;;;;19.18;100.00;100168.38;5059250;28;20206;-72
2023/06/08 01:50:39;;;;;;;0.70;0.70;;;;;;;19.11;100.00;100176.41;5071782;28;20202;-71
2023/06/08 01:53:07;;;;;;;0.60;0.60;;;;;;;19.20;100.00;100177.09;5071994;28;20203;-72
2023/06/08 01:55:34;;;;;;;0.60;0.60;;;;;;;18.92;100.00;100152.22;5071884;28;20191;-71
2023/06/08 01:58:02;;;;;;;0.60;0.60;;;;;;;19.12;100.00;100178.16;5071330;28;20688;-72
2023/06/08 02:00:30;;;;;;;0.60;0.60;;;;;;;18.81;100.00;100165.53;5071394;28;20756;-72
2023/06/08 02:02:57;;;;;;;0.70;0.70;;;;;;;18.84;100.00;100164.59;5072410;28;20629;-72
2023/06/08 02:05:24;;;;;;;0.70;0.70;;;;;;;18.90;100.00;100172.41;5071951;28;20252;-72
2023/06/08 02:07:51;;;;;;;0.60;0.60;;;;;;;18.83;100.00;100158.47;5070587;28;20198;-71
2023/06/08 02:10:19;;;;;;;0.70;0.70;;;;;;;18.99;100.00;100164.34;5068625;28;20203;-72
2023/06/08 02:12:45;;;;;;;0.60;0.60;;;;;;;19.02;100.00;100169.53;5071608;28;20290;-71
2023/06/08 02:15:13;;;;;;;0.70;0.70;;;;;;;19.12;100.00;100173.75;5052769;28;20221;-72
2023/06/08 02:17:41;;;;;;;1.20;1.13;;;;;;;18.97;100.00;100168.78;5071384;28;20207;-71
2023/06/08 02:20:09;;;;;;;0.60;0.60;;;;;;;18.93;100.00;100172.34;5035645;28;20218;-72
2023/06/08 02:22:37;;;;;;;0.70;0.70;;;;;;;18.86;100.00;100170.72;5071531;28;20222;-71
2023/06/08 02:25:04;;;;;;;0.60;0.60;;;;;;;18.83;100.00;100160.28;5071742;28;20874;-72
2023/06/08 02:27:35;;;;;;;0.60;0.60;;;;;;;18.43;100.00;100101.38;5071394;28;20613;-73
2023/06/08 02:30:03;;;;;;;0.60;0.60;;;;;;;18.88;100.00;100165.44;5071373;28;20234;-73
2023/06/08 02:32:32;;;;;;;0.70;0.70;;;;;;;18.96;100.00;100176.69;5035799;28;20222;-72
2023/06/08 02:35:00;;;;;;;0.65;0.65;;;;;;;18.66;100.00;100157.91;5067430;28;20202;-72
2023/06/08 02:37:27;;;;;;;0.60;0.60;;;;;;;18.48;100.00;100186.22;5070501;28;20304;-73
2023/06/08 02:39:54;;;;;;;0.60;0.60;;;;;;;18.21;100.00;100195.34;5035794;28;20223;-73
2023/06/08 02:42:21;;;;;;;0.68;0.68;;;;;;;17.88;100.00;100194.03;5034397;28;20289;-72
2023/06/08 02:44:48;;;;;;;0.70;0.70;;;;;;;17.94;100.00;100190.50;5070136;28;20210;-72
2023/06/08 02:47:15;;;;;;;0.70;0.70;;;;;;;17.30;100.00;100102.13;5071439;28;20217;-72
2023/06/08 02:49:43;;;;;;;0.60;0.60;;;;;;;17.79;100.00;100178.44;5071028;28;20207;-72
2023/06/08 02:52:10;;;;;;;0.70;0.70;;;;;;;17.77;100.00;100193.31;5070892;28;20638;-72
2023/06/08 02:54:37;;;;;;;0.70;0.70;;;;;;;17.77;100.00;100193.31;5071093;28;20657;-72
2023/06/08 02:57:05;;;;;;;0.70;0.70;;;;;;;17.80;100.00;100193.25;5070803;28;20240;-72
2023/06/08 02:59:32;;;;;;;0.70;0.70;;;;;;;17.65;100.00;100164.63;5071059;28;22177;-72
2023/06/08 03:01:59;;;;;;;0.80;0.80;;;;;;;17.89;100.00;100198.41;5071427;28;20206;-72
2023/06/08 03:04:27;;;;;;;0.70;0.70;;;;;;;17.84;100.00;100189.72;5071185;28;20653;-72
2023/06/08 03:06:56;;;;;;;0.60;0.60;;;;;;;17.95;100.00;100179.97;5036085;28;20202;-72
2023/06/08 03:09:24;;;;;;;0.60;0.60;;;;;;;18.05;100.00;100192.06;5070966;28;20256;-72
2023/06/08 03:11:51;;;;;;;0.70;0.70;;;;;;;17.96;100.00;100173.81;5069607;28;20205;-73
2023/06/08 03:14:18;;;;;;;0.60;0.60;;;;;;;18.25;100.00;100197.91;5070832;28;20202;-73
2023/06/08 03:16:45;;;;;;;0.60;0.60;;;;;;;18.44;100.00;100172.28;5070877;28;20586;-72
2023/06/08 03:19:12;;;;;;;0.80;0.80;;;;;;;19.02;100.00;100202.84;5071065;28;20199;-73
2023/06/08 03:21:41;;;;;;;0.93;0.93;;;;;;;19.48;100.00;100208.16;5071379;28;20226;-72
2023/06/08 03:24:10;;;;;;;0.70;0.70;;;;;;;19.99;100.00;100212.38;5070804;28;20198;-73
2023/06/08 03:26:36;;;;;;;0.70;0.70;;;;;;;20.48;100.00;100214.81;5070848;28;20610;-71
2023/06/08 03:29:03;;;;;;;0.60;0.60;;;;;;;21.01;100.00;100202.97;5068392;28;20199;-73
2023/06/08 03:31:36;;;;;;;0.70;0.70;;;;;;;21.48;100.00;100211.44;5066443;28;20207;-72
2023/06/08 03:34:05;;;;;;;0.70;0.70;;;;;;;21.82;100.00;100214.88;5069824;28;20586;-73
2023/06/08 03:36:35;;;;;;;0.60;0.60;;;;;;;22.09;99.13;100227.28;5069823;28;20195;-72
2023/06/08 03:39:02;;;;;;;0.60;0.60;;;;;;;22.28;96.38;100226.75;5070065;28;20677;-73
2023/06/08 03:41:30;;;;;;;0.60;0.60;;;;;;;22.76;92.36;100222.56;5070343;28;20245;-73
2023/06/08 03:43:58;;;;;;;0.70;0.70;;;;;;;22.62;90.30;100230.91;5070421;28;20199;-73
2023/06/08 03:46:25;;;;;;;0.70;0.70;;;;;;;22.95;88.43;100229.00;5070873;28;20195;-72
2023/06/08 03:48:52;;;;;;;0.68;0.68;;;;;;;23.25;86.30;100229.75;5069194;28;20267;-72
2023/06/08 03:51:21;;;;;;;0.70;0.70;;;;;;;22.98;86.86;100239.47;5070623;28;20292;-72
2023/06/08 03:53:48;;;;;;;0.70;0.70;;;;;;;23.37;87.39;100239.03;5035335;28;20655;-72
2023/06/08 03:56:15;;;;;;;0.65;0.65;;;;;;;23.26;86.31;100222.69;5070333;28;20202;-76
2023/06/08 03:58:44;;;;;;;1.88;1.35;;;;;;;23.96;81.20;100221.03;5071249;28;20324;-70
2023/06/08 04:01:11;;;;;;;0.70;0.70;;;;;;;24.34;75.85;100248.75;5070758;28;20249;-74
2023/06/08 04:03:39;;;;;;;0.70;0.70;;;;;;;24.35;75.68;100242.53;5070422;28;20209;-75
2023/06/08 04:06:08;;;;;;;0.70;0.70;;;;;;;23.97;75.73;100239.50;5070201;28;20199;-76
2023/06/08 04:08:35;;;;;;;0.60;0.60;;;;;;;22.96;81.52;100241.31;5073138;28;20242;-73
2023/06/08 04:11:02;;;;;;;0.70;0.70;;;;;;;22.32;85.50;100236.31;5038270;28;20203;-73
2023/06/08 04:13:30;;;;;;;0.60;0.60;;;;;;;22.73;84.20;100238.53;5074141;28;20230;-74
2023/06/08 04:15:59;;;;;;;0.60;0.60;;;;;;;23.17;81.77;100218.56;5073947;28;20278;-75
2023/06/08 04:18:26;;;;;;;0.63;0.63;;;;;;;23.52;78.66;100249.13;5073782;28;20211;-74
2023/06/08 04:20:53;;;;;;;0.60;0.60;;;;;;;24.48;75.02;100251.72;5074317;28;20223;-74
2023/06/08 04:23:20;;;;;;;0.60;0.60;;;;;;;24.99;69.84;100249.69;5039020;28;20203;-75
2023/06/08 04:25:47;;;;;;;0.60;0.60;;;;;;;24.46;70.43;100257.13;5074473;28;20202;-76
2023/06/08 04:28:14;;;;;;;0.60;0.60;;;;;;;24.10;72.10;100256.69;5055123;28;20244;-76
2023/06/08 04:30:40;;;;;;;0.70;0.70;;;;;;;23.27;76.45;100242.91;5071622;28;20235;-77
2023/06/08 04:33:09;;;;;;;0.80;0.80;;;;;;;22.51;83.84;100263.91;5053826;28;20210;-77
2023/06/08 04:35:35;;;;;;;0.70;0.70;;;;;;;21.80;90.42;100258.91;5073524;28;20199;-73
2023/06/08 04:38:02;;;;;;;0.70;0.70;;;;;;;21.90;92.12;100255.16;5070284;28;20204;-71
2023/06/08 04:40:33;;;;;;;0.70;0.70;;;;;;;22.34;90.30;100260.91;5072278;28;20338;-72
2023/06/08 04:42:59;;;;;;;0.60;0.60;;;;;;;23.06;85.23;100245.38;5073190;28;20665;-72
2023/06/08 04:45:26;;;;;;;0.60;0.60;;;;;;;23.41;79.52;100230.06;5073610;28;20191;-72
2023/06/08 04:47:53;;;;;;;0.60;0.60;;;;;;;23.93;77.54;100259.13;5034769;28;20199;-72
2023/06/08 04:50:22;;;;;;;0.52;0.52;;;;;;;24.78;72.95;100261.13;5069441;28;20229;-72
2023/06/08 04:52:50;;;;;;;0.60;0.60;;;;;;;25.33;70.13;100264.19;5038580;28;20286;-73
2023/06/08 04:55:19;;;;;;;0.70;0.70;;;;;;;25.82;66.34;100269.13;5071731;28;20206;-72
2023/06/08 04:57:46;;;;;;;0.60;0.60;;;;;;;26.08;63.37;100271.47;5072713;28;20213;-72
2023/06/08 05:00:14;;;;;;;0.60;0.60;;;;;;;26.15;62.40;100259.63;5073328;28;20269;-72
2023/06/08 05:02:41;;;;;;;0.60;0.60;;;;;;;26.25;61.58;100251.25;5021676;28;20202;-72
2023/06/08 05:05:08;;;;;;;0.70;0.70;;;;;;;27.27;59.16;100257.78;5073362;28;20202;-73
2023/06/08 05:07:36;;;;;;;0.60;0.60;;;;;;;26.72;59.84;100268.47;5073559;28;20206;-73
2023/06/08 05:10:04;;;;;;;0.60;0.60;;;;;;;26.59;59.36;100277.97;5073447;28;20248;-74
2023/06/08 05:12:31;;;;;;;0.70;0.70;;;;;;;27.16;57.68;100268.13;5072640;28;20194;-75
2023/06/08 05:14:58;;;;;;;0.60;0.60;;;;;;;27.24;57.04;100285.44;5070236;28;20207;-75
2023/06/08 05:17:25;;;;;;;0.95;0.95;;;;;;;27.00;56.94;100292.84;5054584;28;20255;-75
2023/06/08 05:19:52;;;;;;;0.60;0.60;;;;;;;26.69;58.26;100273.06;5062295;28;20203;-73
2023/06/08 05:22:18;;;;;;;0.60;0.60;;;;;;;27.01;57.30;100294.56;5065425;28;20674;-73
2023/06/08 05:24:47;;;;;;;0.60;0.60;;;;;;;27.57;55.24;100288.25;5072750;28;20203;-73
2023/06/08 05:27:14;;;;;;;0.60;0.60;;;;;;;27.57;55.72;100293.56;5072957;28;20207;-73
2023/06/08 05:29:40;;;;;;;0.80;0.80;;;;;;;27.42;55.50;100294.31;5072423;28;20230;-73
2023/06/08 05:32:08;;;;;;;0.60;0.60;;;;;;;27.38;55.85;100298.06;5067421;28;20203;-74
2023/06/08 05:34:35;;;;;;;0.60;0.60;;;;;;;27.61;55.56;100289.81;5072638;28;20218;-73
2023/06/08 05:37:01;;;;;;;0.70;0.70;;;;;;;26.71;55.17;100304.03;5071971;28;20700;-73
2023/06/08 05:39:28;;;;;;;0.52;0.52;;;;;;;26.81;56.27;100288.47;5071233;28;20565;-73
2023/06/08 05:41:56;;;;;;;0.60;0.60;;;;;;;27.02;57.18;100298.97;5072173;28;20231;-74
2023/06/08 05:44:23;;;;;;;0.65;0.65;;;;;;;26.36;56.51;100302.16;5072096;28;20253;-74
2023/06/08 05:46:50;;;;;;;0.60;0.60;;;;;;;26.34;56.36;100304.00;5072008;28;20206;-73
2023/06/08 05:49:17;;;;;;;0.60;0.60;;;;;;;26.88;55.00;100303.22;5072180;28;20211;-77
2023/06/08 05:51:43;;;;;;;0.63;0.63;;;;;;;27.01;53.46;100286.59;5072351;28;20199;-74
2023/06/08 05:54:10;;;;;;;0.68;0.68;;;;;;;27.43;53.13;100293.38;5071975;28;20202;-74
2023/06/08 05:56:37;;;;;;;0.55;0.55;;;;;;;27.54;52.36;100291.03;5072324;28;20201;-73
2023/06/08 05:59:05;;;;;;;0.60;0.60;;;;;;;26.94;53.34;100303.78;5072163;28;20198;-73
2023/06/08 06:01:32;;;;;;;0.63;0.63;;;;;;;26.86;55.14;100303.28;5072110;28;20226;-73
2023/06/08 06:03:59;;;;;;;0.63;0.63;;;;;;;26.26;56.17;100298.16;5071922;28;20681;-74
2023/06/08 06:06:25;;;;;;;0.70;0.70;;;;;;;26.00;59.66;100299.34;5071849;28;20195;-74
2023/06/08 06:08:52;;;;;;;0.98;0.98;;;;;;;25.28;58.92;100303.34;5071783;28;20214;-75
2023/06/08 06:11:19;;;;;;;0.88;0.88;;;;;;;25.97;59.51;100295.00;5071917;28;20195;-72
2023/06/08 06:13:45;;;;;;;0.63;0.63;;;;;;;26.72;56.26;100300.41;5071844;28;20561;-73
2023/06/08 06:16:14;;;;;;;0.50;0.50;;;;;;;27.29;53.70;100295.88;5071803;28;20198;-73
2023/06/08 06:18:41;;;;;;;0.70;0.70;;;;;;;27.04;51.80;100310.38;5071727;28;20617;-73
2023/06/08 06:21:07;;;;;;;0.60;0.60;;;;;;;27.04;49.40;100302.41;5071513;28;20230;-73
2023/06/08 06:23:34;;;;;;;0.60;0.60;;;;;;;27.02;49.75;100304.28;5071887;28;20295;-74
2023/06/08 06:26:01;;;;;;;0.60;0.60;;;;;;;26.49;50.89;100290.00;5071562;28;20199;-72
2023/06/08 06:28:28;;;;;;;0.75;0.75;;;;;;;26.02;53.36;100300.97;5071750;28;20206;-73
2023/06/08 06:30:54;;;;;;;0.50;0.50;;;;;;;25.41;55.73;100299.22;5070686;28;20257;-73
2023/06/08 06:33:22;;;;;;;0.70;0.70;;;;;;;25.79;55.48;100301.13;5071611;28;20256;-73
2023/06/08 06:35:49;;;;;;;0.70;0.70;;;;;;;25.29;54.91;100299.78;5052841;28;20198;-73
2023/06/08 06:38:16;;;;;;;0.70;0.70;;;;;;;24.99;56.85;100300.09;5071724;28;20269;-73
2023/06/08 06:40:43;;;;;;;0.60;0.60;;;;;;;24.35;57.79;100290.25;5036160;28;20226;-74
2023/06/08 06:43:10;;;;;;;0.70;0.70;;;;;;;23.86;61.13;100270.84;5071494;28;20195;-73
2023/06/08 06:45:37;;;;;;;0.80;0.80;;;;;;;23.56;60.55;100280.75;5071483;28;20202;-75
2023/06/08 06:48:05;;;;;;;0.77;0.77;;;;;;;23.51;61.72;100284.44;5071293;28;20289;-73
2023/06/08 06:50:33;;;;;;;0.70;0.70;;;;;;;23.42;62.57;100267.13;5052919;28;20195;-74
2023/06/08 06:53:00;;;;;;;0.80;0.80;;;;;;;23.53;64.49;100279.97;5071309;28;20199;-74
2023/06/08 06:55:27;;;;;;;0.70;0.70;;;;;;;23.73;64.31;100282.78;5071449;28;20293;-74
2023/06/08 06:57:53;;;;;;;0.90;0.90;;;;;;;23.52;63.94;100268.53;5071372;28;20214;-74
2023/06/08 07:00:21;;;;;;;0.70;0.70;;;;;;;23.75;62.08;100272.16;5071382;28;20206;-74
2023/06/08 07:02:48;;;;;;;0.82;0.82;;;;;;;23.79;63.39;100271.13;5071077;28;20232;-73
2023/06/08 07:05:15;;;;;;;0.73;0.73;;;;;;;23.61;62.45;100246.19;5071362;28;20202;-73
2023/06/08 07:07:43;;;;;;;0.60;0.60;;;;;;;23.79;62.20;100260.53;5071363;28;20199;-74
2023/06/08 07:10:11;;;;;;;0.60;0.60;;;;;;;23.67;63.80;100261.84;5071452;28;20206;-74
2023/06/08 07:12:38;;;;;;;1.45;1.35;;;;;;;23.32;65.08;100260.38;5052733;28;20206;-74
2023/06/08 07:15:05;;;;;;;11.88;1.95;;;;;;;23.24;65.15;100257.13;5071185;28;20191;-74
2023/06/08 07:17:32;;;;;;;1.05;1.05;;;;;;;23.32;67.36;100260.38;5071106;28;20209;-74
2023/06/08 07:19:59;;;;;;;0.70;0.70;;;;;;;23.55;66.58;100256.97;5071297;28;20256;-74
2023/06/08 07:22:25;;;;;;;0.68;0.68;;;;;;;23.74;67.52;100263.34;5071061;28;20226;-75
2023/06/08 07:24:54;;;;;;;0.60;0.60;;;;;;;23.59;66.50;100263.88;5071142;28;20281;-75
2023/06/08 07:27:20;;;;;;;0.68;0.68;;;;;;;23.50;66.85;100258.91;5071169;28;20201;-75
2023/06/08 07:29:48;;;;;;;0.70;0.70;;;;;;;23.31;67.42;100258.66;5052087;28;20241;-73
2023/06/08 07:32:15;;;;;;;0.70;0.70;;;;;;;23.41;69.23;100254.78;5071004;28;20206;-74
2023/06/08 07:34:42;;;;;;;0.65;0.65;;;;;;;23.75;69.77;100265.06;5071042;28;20285;-74
2023/06/08 07:37:09;;;;;;;0.70;0.70;;;;;;;23.83;68.56;100257.69;5071045;28;20206;-74
2023/06/08 07:39:35;;;;;;;0.70;0.70;;;;;;;23.43;67.59;100236.22;5071018;28;20198;-75
2023/06/08 07:42:05;;;;;;;0.70;0.70;;;;;;;23.59;69.72;100253.28;5072760;28;20226;-75
2023/06/08 07:44:32;;;;;;;0.80;0.80;;;;;;;23.51;67.06;100250.03;5074631;28;20226;-75
2023/06/08 07:47:00;;;;;;;0.70;0.70;;;;;;;23.97;69.58;100252.75;5074613;28;20202;-75
2023/06/08 07:49:29;;;;;;;0.60;0.60;;;;;;;23.68;66.92;100226.50;5052910;28;20195;-79
2023/06/08 07:51:55;;;;;;;0.70;0.70;;;;;;;23.70;68.77;100257.28;5060439;28;20236;-74
2023/06/08 07:54:22;;;;;;;1.55;1.48;;;;;;;23.82;66.49;100253.34;5074538;28;20198;-75
2023/06/08 07:56:50;;;;;;;0.70;0.70;;;;;;;23.98;70.36;100251.84;5031294;28;20203;-75
2023/06/08 07:59:18;;;;;;;0.70;0.70;;;;;;;23.72;69.53;100209.59;5054253;28;20212;-74
2023/06/08 08:01:45;;;;;;;0.55;0.55;;;;;;;24.06;68.05;100249.78;5054327;28;20273;-74
2023/06/08 08:04:12;;;;;;;1.27;0.85;;;;;;;24.36;70.14;100260.19;5031427;28;20209;-75
2023/06/08 08:06:38;;;;;;;0.70;0.70;;;;;;;24.57;68.25;100267.28;5059892;28;20669;-75
2023/06/08 08:09:05;;;;;;;0.75;0.75;;;;;;;24.46;67.87;100269.50;5074119;28;20602;-75
2023/06/08 08:11:32;;;;;;;0.60;0.60;;;;;;;24.41;71.03;100267.00;5073721;28;20581;-74
2023/06/08 08:13:59;;;;;;;0.60;0.60;;;;;;;24.16;72.23;100260.91;5038586;28;20567;-74
2023/06/08 08:16:27;;;;;;;0.80;0.80;;;;;;;24.41;73.48;100268.78;5073191;28;20206;-75
2023/06/08 08:18:54;;;;;;;0.70;0.70;;;;;;;24.13;72.11;100238.06;5061068;28;20195;-75
2023/06/08 08:21:20;;;;;;;0.60;0.60;;;;;;;24.34;72.39;100259.34;5073731;28;20230;-74
2023/06/08 08:23:48;;;;;;;0.70;0.70;;;;;;;24.71;72.69;100259.66;5059409;28;20211;-74
2023/06/08 08:26:14;;;;;;;0.70;0.70;;;;;;;24.54;70.67;100262.13;5073659;28;20252;-74
2023/06/08 08:28:44;;;;;;;0.80;0.80;;;;;;;24.92;71.39;100242.91;5073664;28;20202;-75
2023/06/08 08:31:11;;;;;;;0.73;0.73;;;;;;;24.62;69.29;100236.13;5073893;28;20686;-73
2023/06/08 08:33:39;;;;;;;0.60;0.60;;;;;;;24.87;67.90;100250.16;5073408;28;20221;-73
2023/06/08 08:36:07;;;;;;;0.60;0.60;;;;;;;25.08;68.77;100249.28;5073529;28;20210;-74
2023/06/08 08:38:34;;;;;;;0.60;0.60;;;;;;;25.02;67.07;100238.94;5073361;28;20211;-73
2023/06/08 08:41:06;;;;;;;0.70;0.70;;;;;;;25.31;66.31;100242.16;5073558;28;20206;-74
2023/06/08 08:43:40;;;;;;;0.70;0.70;;;;;;;25.49;65.46;100233.38;5073629;28;20210;-75
2023/06/08 08:46:08;;;;;;;0.70;0.70;;;;;;;25.47;65.62;100245.88;5073667;28;20194;-75
2023/06/08 08:48:42;;;;;;;0.65;0.65;;;;;;;25.75;63.83;100246.44;5073552;28;20289;-75
2023/06/08 08:51:13;;;;;;;0.70;0.70;;;;;;;25.40;60.27;100245.25;5073365;28;20768;-75
2023/06/08 08:53:41;;;;;;;0.75;0.75;;;;;;;25.60;60.06;100247.97;5072810;28;20194;-75
2023/06/08 08:56:09;;;;;;;0.60;0.60;;;;;;;25.59;57.89;100224.97;5073599;28;20275;-75
2023/06/08 08:58:36;;;;;;;0.70;0.70;;;;;;;25.78;58.72;100250.72;5073462;28;20194;-75
2023/06/08 09:01:05;;;;;;;0.80;0.80;;;;;;;25.84;56.84;100238.03;5073219;28;20198;-75
2023/06/08 09:03:32;;;;;;;0.75;0.75;;;;;;;25.70;54.92;100243.09;5073140;28;20202;-75
2023/06/08 09:06:02;;;;;;;0.80;0.80;;;;;;;26.04;54.77;100242.47;5073098;28;20275;-75
2023/06/08 09:08:32;;;;;;;0.70;0.70;;;;;;;26.06;53.38;100236.13;5073298;28;20199;-75
2023/06/08 09:11:03;;;;;;;0.70;0.70;;;;;;;25.99;55.52;100240.00;5061759;28;20199;-75
2023/06/08 09:13:31;;;;;;;0.70;0.70;;;;;;;25.98;54.36;100234.75;5056332;28;20199;-75
2023/06/08 09:16:07;;;;;;;0.60;0.60;;;;;;;26.01;54.99;100234.59;5061805;28;20198;-74
2023/06/08 09:18:34;;;;;;;0.70;0.70;;;;;;;26.03;54.44;100215.00;5063101;28;20569;-74
2023/06/08 09:21:19;;;;;;;0.70;0.70;;;;;;;26.03;51.37;100209.69;5068122;28;20211;-75
2023/06/08 09:23:47;;;;;;;0.70;0.70;;;;;;;26.04;50.82;100211.41;5072701;28;20198;-75
2023/06/08 09:26:32;;;;;;;0.70;0.70;;;;;;;26.23;50.72;100227.41;5070125;28;20209;-74
2023/06/08 09:29:01;;;;;;;0.77;0.77;;;;;;;26.55;51.36;100236.50;5063470;28;20195;-76
2023/06/08 09:31:29;;;;;;;0.60;0.60;;;;;;;26.70;49.18;100232.25;5072271;28;20206;-75
2023/06/08 09:34:05;;;;;;;0.60;0.60;;;;;;;26.91;48.35;100223.22;5072440;28;20540;-74
2023/06/08 09:36:36;;;;;;;0.60;0.60;;;;;;;26.93;49.83;100216.88;5072217;28;20240;-74
2023/06/08 09:39:05;;;;;;;0.60;0.60;;;;;;;26.50;49.72;100219.91;5072265;28;20708;-73
2023/06/08 09:41:32;;;;;;;0.63;0.63;;;;;;;26.54;49.18;100232.13;5072199;28;20230;-74
2023/06/08 09:43:59;;;;;;;0.70;0.70;;;;;;;26.22;48.10;100215.03;5069996;28;20195;-74
2023/06/08 09:46:38;;;;;;;0.70;0.70;;;;;;;26.52;47.76;100218.03;5072018;28;20234;-73
2023/06/08 09:49:07;;;;;;;0.70;0.70;;;;;;;26.58;47.46;100213.28;5072053;28;20202;-74
2023/06/08 09:51:37;;;;;;;0.88;0.88;;;;;;;26.40;46.62;100219.47;5071776;28;20209;-75
2023/06/08 09:54:07;;;;;;;0.77;0.77;;;;;;;26.41;46.87;100212.38;5072230;28;20198;-74
2023/06/08 09:56:37;;;;;;;0.70;0.70;;;;;;;26.51;45.37;100210.97;5023220;28;20203;-75
2023/06/08 09:59:08;;;;;;;0.70;0.70;;;;;;;27.09;45.78;100204.53;5058031;28;20194;-75
2023/06/08 10:01:40;;;;;;;0.60;0.60;;;;;;;27.18;45.54;100208.56;5072172;28;20198;-76
2023/06/08 10:04:15;;;;;;;0.70;0.70;;;;;;;27.11;42.96;100199.16;5071474;28;20229;-76
2023/06/08 10:06:45;;;;;;;0.77;0.77;;;;;;;27.09;43.79;100193.91;5071757;28;20202;-74
2023/06/08 10:09:15;;;;;;;0.70;0.70;;;;;;;26.60;41.34;100117.44;5071554;28;20710;-74
2023/06/08 10:11:42;;;;;;;0.70;0.70;;;;;;;27.02;42.72;100176.50;5071963;28;20203;-75
2023/06/08 10:14:12;;;;;;;0.70;0.70;;;;;;;26.86;42.38;100172.88;5067241;28;20203;-73
2023/06/08 10:16:40;;;;;;;0.68;0.68;;;;;;;27.15;41.86;100167.91;5062286;28;20282;-72
2023/06/08 10:19:08;;;;;;;0.60;0.60;;;;;;;27.11;42.00;100181.34;5022516;28;20199;-72
2023/06/08 10:21:35;;;;;;;0.60;0.60;;;;;;;27.14;41.43;100179.50;5071485;28;20209;-73
2023/06/08 10:24:05;;;;;;;0.70;0.70;;;;;;;27.54;41.96;100182.66;5071502;28;20715;-72
2023/06/08 10:26:32;;;;;;;0.70;0.70;;;;;;;27.25;40.31;100178.00;5071358;28;20203;-73
2023/06/08 10:29:06;;;;;;;0.50;0.50;;;;;;;27.34;42.03;100166.84;5071222;28;20289;-72
2023/06/08 10:31:36;;;;;;;0.70;0.70;;;;;;;27.28;40.00;100179.63;5058005;28;20198;-73
2023/06/08 10:34:08;;;;;;;0.70;0.70;;;;;;;27.55;41.40;100164.88;5071557;28;20202;-73
2023/06/08 10:36:39;;;;;;;0.70;0.70;;;;;;;27.26;40.42;100157.53;5057333;28;20198;-72
2023/06/08 10:39:10;;;;;;;0.70;0.70;;;;;;;27.47;40.79;100162.63;5052629;28;20190;-72
2023/06/08 10:41:38;;;;;;;0.63;0.63;;;;;;;27.26;41.04;100158.41;5070926;28;20205;-72
2023/06/08 10:44:05;;;;;;;0.65;0.65;;;;;;;27.22;40.73;100156.00;5071540;28;20203;-72
2023/06/08 10:46:41;;;;;;;0.60;0.60;;;;;;;27.44;41.76;100156.56;5057038;28;20197;-72
2023/06/08 10:49:08;;;;;;;0.70;0.70;;;;;;;27.42;41.26;100158.47;5071170;28;20692;-73
2023/06/08 10:51:42;;;;;;;0.98;0.98;;;;;;;27.83;40.98;100145.59;5067920;28;20200;-72
2023/06/08 10:54:22;;;;;;;0.60;0.60;;;;;;;27.62;40.83;100123.66;5061602;28;20202;-74
2023/06/08 10:56:52;;;;;;;0.60;0.60;;;;;;;27.77;41.02;100148.59;5070980;28;20202;-73
2023/06/08 10:59:22;;;;;;;0.63;0.63;;;;;;;27.60;41.13;100144.19;5071371;28;20211;-73
2023/06/08 11:01:49;;;;;;;0.70;0.70;;;;;;;27.36;40.93;100119.69;5071155;28;20205;-72
2023/06/08 11:04:17;;;;;;;0.70;0.70;;;;;;;27.37;40.45;100136.53;5071511;28;20709;-73
2023/06/08 11:06:44;;;;;;;0.70;0.70;;;;;;;27.36;40.32;100132.16;5071152;28;20202;-72
2023/06/08 11:09:12;;;;;;;0.70;0.70;;;;;;;27.47;41.11;100119.16;5071354;28;20704;-73
2023/06/08 11:11:50;;;;;;;0.70;0.70;;;;;;;27.96;41.83;100128.88;5071112;28;20268;-73
2023/06/08 11:14:20;;;;;;;0.60;0.60;;;;;;;27.97;40.68;100133.22;5071197;28;20292;-74
2023/06/08 11:16:50;;;;;;;0.60;0.60;;;;;;;28.14;41.31;100128.81;5072707;28;20681;-74
2023/06/08 11:19:18;;;;;;;0.70;0.70;;;;;;;28.00;40.75;100129.56;5075492;28;20206;-74
2023/06/08 11:21:45;;;;;;;0.68;0.68;;;;;;;27.69;40.56;100125.03;5057010;28;20285;-73
2023/06/08 11:24:16;;;;;;;0.75;0.75;;;;;;;28.04;40.26;100123.94;5075161;28;20276;-73
2023/06/08 11:26:43;;;;;;;0.60;0.60;;;;;;;28.19;40.56;100119.59;5075159;28;20290;-74
2023/06/08 11:29:09;;;;;;;0.60;0.60;;;;;;;28.08;40.28;100117.53;5074902;28;20236;-73